createdAt,value
2017-07-10T00:02:09.913Z,90.10
2017-07-10T00:04:37.469Z,90.00
2017-07-10T00:07:04.988Z,90.20
2017-07-10T00:09:32.548Z,90.70
2017-07-10T00:12:00.080Z,90.50
2017-07-10T00:14:27.616Z,89.60
2017-07-10T00:16:55.967Z,90.30
2017-07-10T00:19:23.492Z,90.30
2017-07-10T00:21:51.016Z,90.00
2017-07-10T00:24:18.578Z,90.40
2017-07-10T00:26:46.115Z,90.50
2017-07-10T00:29:14.406Z,91.10
2017-07-10T00:31:41.976Z,91.00
2017-07-10T00:34:09.497Z,90.90
2017-07-10T00:36:37.025Z,88.90
2017-07-10T00:39:04.587Z,90.40
2017-07-10T00:41:32.177Z,90.60
2017-07-10T00:44:00.605Z,90.10
2017-07-10T00:46:28.129Z,90.70
2017-07-10T00:48:55.689Z,90.00
2017-07-10T00:51:23.978Z,90.50
2017-07-10T00:53:51.517Z,90.80
2017-07-10T00:56:19.869Z,90.10
2017-07-10T00:58:47.386Z,90.00
2017-07-10T01:01:14.961Z,91.10
2017-07-10T01:03:42.490Z,91.10
2017-07-10T01:06:10.021Z,91.70
2017-07-10T01:08:38.384Z,91.50
2017-07-10T01:11:05.917Z,91.50
2017-07-10T01:13:33.440Z,91.10
2017-07-10T01:16:00.993Z,91.30
2017-07-10T01:18:28.568Z,90.90
2017-07-10T01:20:56.134Z,91.30
2017-07-10T01:23:23.664Z,91.30
2017-07-10T01:25:51.196Z,91.60
2017-07-10T01:28:19.525Z,92.60
2017-07-10T01:30:47.049Z,92.60
2017-07-10T01:33:14.578Z,92.70
2017-07-10T01:35:42.158Z,93.10
2017-07-10T01:38:10.516Z,93.30
2017-07-10T01:40:38.043Z,93.20
2017-07-10T01:43:05.655Z,93.30
2017-07-10T01:45:33.180Z,92.80
2017-07-10T01:48:00.777Z,93.40
2017-07-10T01:50:28.300Z,93.50
2017-07-10T01:52:55.887Z,92.60
2017-07-10T01:55:23.457Z,93.20
2017-07-10T01:57:50.981Z,93.50
2017-07-10T02:00:18.505Z,92.50
2017-07-10T02:02:46.094Z,92.30
2017-07-10T02:05:13.632Z,93.30
2017-07-10T02:07:41.158Z,92.70
2017-07-10T02:10:08.727Z,93.10
2017-07-10T02:12:36.253Z,93.20
2017-07-10T02:15:03.791Z,93.10
2017-07-10T02:17:31.365Z,93.00
2017-07-10T02:19:58.961Z,92.30
2017-07-10T02:22:26.488Z,93.20
2017-07-10T02:24:54.062Z,93.20
2017-07-10T02:27:21.592Z,93.00
2017-07-10T02:29:49.141Z,92.60
2017-07-10T02:32:17.482Z,92.30
2017-07-10T02:34:45.007Z,92.10
2017-07-10T02:37:12.543Z,92.10
2017-07-10T02:39:40.114Z,92.80
2017-07-10T02:42:07.640Z,92.90
2017-07-10T02:44:35.920Z,92.70
2017-07-10T02:47:03.513Z,92.70
2017-07-10T02:49:31.032Z,93.10
2017-07-10T02:51:58.565Z,93.00
2017-07-10T02:54:26.152Z,93.30
2017-07-10T02:56:54.447Z,93.40
2017-07-10T02:59:21.969Z,93.40
2017-07-10T03:01:49.581Z,92.70
2017-07-10T03:04:17.113Z,92.70
2017-07-10T03:06:45.406Z,92.80
2017-07-10T03:09:12.992Z,92.80
2017-07-10T03:11:40.524Z,92.50
2017-07-10T03:14:08.048Z,92.50
2017-07-10T03:16:35.602Z,92.60
2017-07-10T03:19:03.112Z,91.80
2017-07-10T03:21:30.677Z,92.50
2017-07-10T03:23:58.205Z,92.90
2017-07-10T03:26:25.733Z,92.60
2017-07-10T03:28:54.082Z,92.80
2017-07-10T03:31:21.620Z,92.80
2017-07-10T03:34:01.750Z,92.70
2017-07-10T03:36:29.301Z,92.80
2017-07-10T03:38:56.817Z,93.00
2017-07-10T03:41:24.373Z,92.30
2017-07-10T03:43:51.925Z,93.60
2017-07-10T03:46:19.501Z,92.50
2017-07-10T03:48:47.022Z,93.00
2017-07-10T03:51:14.553Z,93.20
2017-07-10T03:53:42.141Z,92.90
2017-07-10T03:56:10.016Z,92.90
2017-07-10T03:58:37.550Z,92.80
2017-07-10T04:01:05.092Z,93.10
2017-07-10T04:03:32.668Z,92.50
2017-07-10T04:06:00.195Z,92.80
2017-07-10T04:08:28.480Z,92.70
2017-07-10T04:10:56.071Z,92.60
2017-07-10T04:13:23.598Z,93.20
2017-07-10T04:15:51.169Z,93.10
2017-07-10T04:18:18.684Z,92.50
2017-07-10T04:20:46.211Z,93.10
2017-07-10T04:23:13.779Z,93.00
2017-07-10T04:25:41.315Z,93.90
2017-07-10T04:28:08.896Z,93.50
2017-07-10T04:30:36.465Z,92.50
2017-07-10T04:33:04.777Z,93.20
2017-07-10T04:35:32.364Z,93.30
2017-07-10T04:37:59.893Z,92.20
2017-07-10T04:40:27.512Z,92.50
2017-07-10T04:42:55.060Z,93.10
2017-07-10T04:45:22.595Z,92.90
2017-07-10T04:47:50.164Z,92.40
2017-07-10T04:50:17.697Z,91.10
2017-07-10T04:52:45.268Z,92.30
2017-07-10T04:55:12.813Z,92.70
2017-07-10T04:57:40.353Z,92.80
2017-07-10T05:00:07.932Z,92.70
2017-07-10T05:02:35.493Z,92.90
2017-07-10T05:05:03.058Z,92.70
2017-07-10T05:07:30.659Z,92.60
2017-07-10T05:10:00.758Z,92.60
2017-07-10T05:12:28.400Z,92.40
2017-07-10T05:14:55.994Z,92.30
2017-07-10T05:17:23.513Z,92.70
2017-07-10T05:19:51.042Z,92.40
2017-07-10T05:22:19.012Z,92.60
2017-07-10T05:24:46.602Z,92.50
2017-07-10T05:27:14.133Z,92.50
2017-07-10T05:29:41.721Z,93.00
2017-07-10T05:32:09.248Z,93.20
2017-07-10T05:34:36.773Z,93.40
2017-07-10T05:37:05.104Z,92.90
2017-07-10T05:39:32.678Z,92.90
2017-07-10T05:42:00.209Z,93.40
2017-07-10T05:44:27.756Z,93.00
2017-07-10T05:46:55.325Z,93.40
2017-07-10T05:49:22.884Z,92.90
2017-07-10T05:51:50.460Z,92.90
2017-07-10T05:54:17.981Z,93.20
2017-07-10T05:56:45.513Z,92.90
2017-07-10T05:59:13.833Z,92.50
2017-07-10T06:01:41.410Z,92.50
2017-07-10T06:04:08.941Z,92.50
2017-07-10T06:06:36.511Z,93.20
2017-07-10T06:09:04.066Z,93.60
2017-07-10T06:11:31.627Z,93.10
2017-07-10T06:13:59.238Z,92.80
2017-07-10T06:16:27.532Z,92.80
2017-07-10T06:18:55.055Z,92.80
2017-07-10T06:21:22.617Z,93.20
2017-07-10T06:23:50.144Z,93.10
2017-07-10T06:26:17.677Z,93.10
2017-07-10T06:28:45.252Z,92.60
2017-07-10T06:31:12.776Z,92.40
2017-07-10T06:33:40.292Z,92.40
2017-07-10T06:36:07.844Z,92.70
2017-07-10T06:38:35.403Z,91.90
2017-07-10T06:41:02.985Z,92.30
2017-07-10T06:43:30.513Z,92.40
2017-07-10T06:45:58.076Z,91.90
2017-07-10T06:48:25.636Z,91.50
2017-07-10T06:50:53.222Z,91.70
2017-07-10T06:53:20.785Z,91.80
2017-07-10T06:55:48.350Z,90.80
2017-07-10T06:58:15.885Z,91.00
2017-07-10T07:00:43.471Z,87.80
2017-07-10T07:03:11.039Z,87.80
2017-07-10T07:05:38.626Z,86.30
2017-07-10T07:08:06.166Z,87.70
2017-07-10T07:10:33.691Z,85.70
2017-07-10T07:13:02.034Z,89.20
2017-07-10T07:15:29.558Z,89.00
2017-07-10T07:17:57.092Z,88.40
2017-07-10T07:20:24.679Z,89.50
2017-07-10T07:22:52.246Z,88.90
2017-07-10T07:25:19.812Z,88.20
2017-07-10T07:27:47.702Z,86.60
2017-07-10T07:30:15.223Z,85.90
2017-07-10T07:32:42.764Z,84.40
2017-07-10T07:35:10.352Z,83.60
2017-07-10T07:37:37.897Z,83.80
2017-07-10T07:40:05.495Z,83.60
2017-07-10T07:42:33.049Z,80.80
2017-07-10T07:45:00.576Z,80.30
2017-07-10T07:47:28.201Z,79.80
2017-07-10T07:49:55.725Z,80.30
2017-07-10T07:52:23.257Z,79.00
2017-07-10T07:54:50.820Z,78.60
2017-07-10T07:57:18.381Z,79.60
2017-07-10T07:59:45.920Z,79.20
2017-07-10T08:02:13.457Z,78.90
2017-07-10T08:04:41.030Z,80.20
2017-07-10T08:07:08.557Z,78.10
2017-07-10T08:09:36.084Z,76.10
2017-07-10T08:12:03.659Z,76.90
2017-07-10T08:14:31.228Z,77.30
2017-07-10T08:16:58.745Z,78.50
2017-07-10T08:19:26.307Z,75.30
2017-07-10T08:21:53.822Z,75.90
2017-07-10T08:24:21.352Z,74.80
2017-07-10T08:26:49.697Z,74.40
2017-07-10T08:29:17.217Z,74.20
2017-07-10T08:31:44.755Z,75.80
2017-07-10T08:34:12.317Z,74.40
2017-07-10T08:36:39.855Z,73.80
2017-07-10T08:39:07.412Z,71.80
2017-07-10T08:41:35.690Z,73.10
2017-07-10T08:44:03.244Z,73.60
2017-07-10T08:46:30.833Z,74.30
2017-07-10T08:48:58.373Z,73.10
2017-07-10T08:51:26.698Z,69.50
2017-07-10T08:53:54.216Z,69.50
2017-07-10T08:56:21.781Z,70.30
2017-07-10T08:58:49.336Z,71.10
2017-07-10T09:01:16.878Z,70.10
2017-07-10T09:03:44.445Z,71.10
2017-07-10T09:06:11.981Z,73.30
2017-07-10T09:08:39.544Z,69.90
2017-07-10T09:11:08.013Z,69.00
2017-07-10T09:13:35.625Z,71.10
2017-07-10T09:16:03.141Z,71.60
2017-07-10T09:18:30.678Z,68.50
2017-07-10T09:20:58.241Z,69.20
2017-07-10T09:23:25.805Z,68.10
2017-07-10T09:25:53.368Z,70.20
2017-07-10T09:28:20.928Z,70.00
2017-07-10T09:30:49.241Z,69.80
2017-07-10T09:33:16.832Z,69.60
2017-07-10T09:35:44.353Z,70.50
2017-07-10T09:38:11.900Z,70.90
2017-07-10T09:40:39.889Z,71.10
2017-07-10T09:43:07.418Z,69.20
2017-07-10T09:45:34.996Z,71.10
2017-07-10T09:48:02.541Z,70.00
2017-07-10T09:50:30.103Z,71.60
2017-07-10T09:52:57.663Z,71.90
2017-07-10T09:55:25.209Z,71.70
2017-07-10T09:57:52.786Z,71.70
2017-07-10T10:00:20.353Z,69.20
2017-07-10T10:02:47.885Z,69.70
2017-07-10T10:05:15.493Z,70.30
2017-07-10T10:07:43.038Z,68.00
2017-07-10T10:10:10.579Z,67.10
2017-07-10T10:12:38.169Z,65.60
2017-07-10T10:15:05.680Z,62.40
2017-07-10T10:17:33.201Z,61.50
2017-07-10T10:20:00.776Z,64.90
2017-07-10T10:22:29.086Z,63.10
2017-07-10T10:24:56.608Z,63.00
2017-07-10T10:27:24.933Z,62.50
2017-07-10T10:29:52.454Z,62.50
2017-07-10T10:32:19.995Z,59.10
2017-07-10T10:34:48.309Z,59.60
2017-07-10T10:37:15.852Z,59.60
2017-07-10T10:39:43.441Z,59.40
2017-07-10T10:42:10.969Z,57.70
2017-07-10T10:44:38.507Z,59.80
2017-07-10T10:47:06.120Z,59.60
2017-07-10T10:49:33.695Z,60.10
2017-07-10T10:52:01.213Z,58.90
2017-07-10T10:54:28.777Z,60.60
2017-07-10T10:56:56.314Z,57.80
2017-07-10T10:59:23.847Z,58.50
2017-07-10T11:01:51.766Z,57.10
2017-07-10T11:04:19.304Z,58.60
2017-07-10T11:06:46.849Z,56.70
2017-07-10T11:09:15.205Z,56.80
2017-07-10T11:11:42.737Z,56.50
2017-07-10T11:14:10.276Z,57.80
2017-07-10T11:16:37.850Z,58.50
2017-07-10T11:19:05.392Z,58.40
2017-07-10T11:21:32.965Z,58.20
2017-07-10T11:24:01.445Z,59.60
2017-07-10T11:26:28.963Z,58.60
2017-07-10T11:28:56.521Z,60.60
2017-07-10T11:31:24.083Z,63.50
2017-07-10T11:33:51.605Z,61.30
2017-07-10T11:36:19.921Z,59.90
2017-07-10T11:38:47.516Z,59.70
2017-07-10T11:41:15.369Z,59.70
2017-07-10T11:43:42.899Z,58.00
2017-07-10T11:46:10.473Z,55.60
2017-07-10T11:48:38.003Z,55.20
2017-07-10T11:51:05.585Z,57.30
2017-07-10T11:53:33.108Z,55.10
2017-07-10T11:56:00.668Z,55.70
2017-07-10T11:58:28.193Z,55.40
2017-07-10T12:00:55.740Z,53.40
2017-07-10T12:03:23.260Z,54.80
2017-07-10T12:05:50.827Z,55.00
2017-07-10T12:08:18.416Z,55.50
2017-07-10T12:10:45.961Z,55.80
2017-07-10T12:13:13.481Z,57.80
2017-07-10T12:15:41.103Z,57.50
2017-07-10T12:18:09.441Z,56.00
2017-07-10T12:20:36.958Z,56.00
2017-07-10T12:23:04.539Z,55.20
2017-07-10T12:25:32.064Z,55.40
2017-07-10T12:28:00.350Z,55.30
2017-07-10T12:30:27.919Z,55.50
2017-07-10T12:32:55.439Z,55.60
2017-07-10T12:35:22.964Z,55.50
2017-07-10T12:37:50.537Z,55.40
2017-07-10T12:40:18.065Z,56.30
2017-07-10T12:42:45.653Z,56.00
2017-07-10T12:45:13.185Z,55.40
2017-07-10T12:47:40.777Z,55.80
2017-07-10T12:50:08.338Z,57.10
2017-07-10T12:52:35.873Z,56.20
2017-07-10T12:55:03.451Z,56.20
2017-07-10T12:57:30.987Z,55.10
2017-07-10T12:59:58.548Z,54.90
2017-07-10T13:02:26.095Z,56.30
2017-07-10T13:04:53.626Z,57.40
2017-07-10T13:07:21.187Z,56.80
2017-07-10T13:09:48.728Z,55.20
2017-07-10T13:12:16.261Z,56.00
2017-07-10T13:14:43.832Z,56.70
2017-07-10T13:17:11.364Z,54.70
2017-07-10T13:19:38.884Z,56.60
2017-07-10T13:22:06.448Z,55.40
2017-07-10T13:24:33.966Z,57.00
2017-07-10T13:27:01.509Z,55.20
2017-07-10T13:29:29.069Z,54.60
2017-07-10T13:31:56.609Z,53.90
2017-07-10T13:34:24.291Z,55.20
2017-07-10T13:36:51.858Z,54.60
2017-07-10T13:39:19.414Z,54.50
2017-07-10T13:41:46.983Z,53.80
2017-07-10T13:44:15.269Z,54.20
2017-07-10T13:46:42.805Z,54.10
2017-07-10T13:49:10.360Z,53.30
2017-07-10T13:51:37.952Z,54.90
2017-07-10T13:54:05.501Z,55.90
2017-07-10T13:56:33.041Z,55.60
2017-07-10T13:59:01.356Z,56.70
2017-07-10T14:01:28.881Z,56.70
2017-07-10T14:03:57.228Z,55.10
2017-07-10T14:06:24.756Z,55.00
2017-07-10T14:08:52.285Z,55.90
2017-07-10T14:11:19.845Z,56.60
2017-07-10T14:13:47.377Z,56.90
2017-07-10T14:16:14.908Z,56.00
2017-07-10T14:18:42.505Z,55.50
2017-07-10T14:21:10.063Z,56.00
2017-07-10T14:23:37.608Z,56.90
2017-07-10T14:26:05.925Z,58.00
2017-07-10T14:28:33.489Z,57.90
2017-07-10T14:31:01.034Z,58.30
2017-07-10T14:33:28.568Z,58.80
2017-07-10T14:35:56.140Z,56.90
2017-07-10T14:38:23.658Z,57.60
2017-07-10T14:40:51.172Z,55.80
2017-07-10T14:43:18.779Z,56.10
2017-07-10T14:45:46.346Z,56.90
2017-07-10T14:48:14.641Z,58.60
2017-07-10T14:50:42.976Z,59.20
2017-07-10T14:53:10.502Z,59.20
2017-07-10T14:55:38.056Z,58.10
2017-07-10T14:58:05.630Z,57.60
2017-07-10T15:00:33.159Z,58.00
2017-07-10T15:03:00.684Z,57.80
2017-07-10T15:05:28.246Z,59.10
2017-07-10T15:07:56.548Z,58.00
2017-07-10T15:10:24.090Z,57.60
2017-07-10T15:12:52.416Z,57.30
2017-07-10T15:15:19.933Z,57.10
2017-07-10T15:17:47.472Z,57.50
2017-07-10T15:20:15.048Z,57.60
2017-07-10T15:22:42.580Z,56.70
2017-07-10T15:25:10.092Z,57.40
2017-07-10T15:27:37.636Z,57.40
2017-07-10T15:30:05.166Z,58.20
2017-07-10T15:32:32.756Z,57.30
2017-07-10T15:35:00.286Z,56.90
2017-07-10T15:37:28.560Z,57.60
2017-07-10T15:39:56.178Z,57.60
2017-07-10T15:42:23.705Z,57.60
2017-07-10T15:44:51.245Z,57.10
2017-07-10T15:47:18.808Z,58.10
2017-07-10T15:49:46.332Z,58.20
2017-07-10T15:52:13.893Z,57.80
2017-07-10T15:54:41.459Z,58.40
2017-07-10T15:57:08.976Z,57.20
2017-07-10T15:59:36.490Z,57.80
2017-07-10T16:02:04.045Z,58.10
2017-07-10T16:04:31.561Z,57.20
2017-07-10T16:06:59.072Z,57.40
2017-07-10T16:09:26.625Z,59.40
2017-07-10T16:11:54.140Z,58.60
2017-07-10T16:14:21.696Z,59.20
2017-07-10T16:16:49.235Z,59.40
2017-07-10T16:19:16.859Z,60.10
2017-07-10T16:21:44.385Z,60.00
2017-07-10T16:24:11.901Z,58.80
2017-07-10T16:26:39.469Z,59.60
2017-07-10T16:29:06.975Z,59.30
2017-07-10T16:31:35.255Z,59.30
2017-07-10T16:34:02.807Z,59.30
2017-07-10T16:36:31.088Z,62.90
2017-07-10T16:38:58.648Z,62.70
2017-07-10T16:41:26.181Z,62.20
2017-07-10T16:43:53.700Z,61.80
2017-07-10T16:46:21.258Z,59.90
2017-07-10T16:48:48.806Z,58.50
2017-07-10T16:51:16.334Z,59.20
2017-07-10T16:53:43.889Z,58.70
2017-07-10T16:56:11.412Z,58.00
2017-07-10T16:58:38.978Z,57.80
2017-07-10T17:01:06.501Z,58.60
2017-07-10T17:03:34.086Z,60.20
2017-07-10T17:06:01.608Z,61.20
2017-07-10T17:08:29.117Z,61.60
2017-07-10T17:10:56.672Z,62.10
2017-07-10T17:13:24.241Z,60.70
2017-07-10T17:15:52.524Z,59.60
2017-07-10T17:18:20.049Z,59.50
2017-07-10T17:20:47.666Z,58.90
2017-07-10T17:23:15.226Z,59.10
2017-07-10T17:25:42.755Z,60.00
2017-07-10T17:28:10.343Z,63.80
2017-07-10T17:30:37.889Z,65.00
2017-07-10T17:33:05.408Z,65.30
2017-07-10T17:35:32.976Z,66.60
2017-07-10T17:38:00.504Z,68.00
2017-07-10T17:40:28.068Z,70.20
2017-07-10T17:42:55.629Z,72.10
2017-07-10T17:45:23.165Z,73.60
2017-07-10T17:47:50.722Z,73.60
2017-07-10T17:50:18.236Z,73.80
2017-07-10T17:52:45.805Z,73.40
2017-07-10T17:55:13.340Z,73.70
2017-07-10T17:57:40.897Z,73.50
2017-07-10T18:00:08.449Z,73.20
2017-07-10T18:02:36.009Z,73.40
2017-07-10T18:05:03.549Z,73.80
2017-07-10T18:07:31.132Z,74.00
2017-07-10T18:09:58.657Z,75.20
2017-07-10T18:12:26.209Z,76.50
2017-07-10T18:14:53.764Z,77.90
2017-07-10T18:17:21.287Z,78.60
2017-07-10T18:19:48.817Z,78.70
2017-07-10T18:22:17.151Z,79.30
2017-07-10T18:24:44.676Z,79.30
2017-07-10T18:27:12.201Z,79.10
2017-07-10T18:29:39.763Z,78.80
2017-07-10T18:32:08.056Z,79.10
2017-07-10T18:34:35.621Z,79.00
2017-07-10T18:37:03.140Z,78.90
2017-07-10T18:39:30.674Z,79.00
2017-07-10T18:41:58.248Z,79.00
2017-07-10T18:44:25.779Z,78.40
2017-07-10T18:46:53.307Z,78.70
2017-07-10T18:49:20.881Z,80.00
2017-07-10T18:51:48.404Z,80.10
2017-07-10T18:54:15.960Z,81.10
2017-07-10T18:56:44.275Z,83.60
2017-07-10T18:59:11.805Z,83.60
2017-07-10T19:01:39.390Z,85.10
2017-07-10T19:04:06.986Z,86.50
2017-07-10T19:06:34.473Z,87.10
2017-07-10T19:09:02.030Z,88.00
2017-07-10T19:11:29.562Z,88.30
2017-07-10T19:13:57.099Z,89.40
2017-07-10T19:16:24.714Z,89.10
2017-07-10T19:18:52.240Z,88.90
2017-07-10T19:21:20.561Z,86.10
2017-07-10T19:23:48.126Z,86.50
2017-07-10T19:26:15.638Z,86.40
2017-07-10T19:28:43.156Z,86.20
2017-07-10T19:31:10.716Z,86.50
2017-07-10T19:33:38.243Z,87.50
2017-07-10T19:36:05.836Z,89.30
2017-07-10T19:38:33.378Z,89.70
2017-07-10T19:41:00.914Z,90.70
2017-07-10T19:43:28.489Z,91.20
2017-07-10T19:45:56.025Z,91.50
2017-07-10T19:48:23.552Z,91.20
2017-07-10T19:50:51.114Z,91.00
2017-07-10T19:53:19.411Z,90.50
2017-07-10T19:55:46.920Z,90.50
2017-07-10T19:58:14.504Z,90.20
2017-07-10T20:00:42.016Z,90.10
2017-07-10T20:03:09.540Z,90.50
2017-07-10T20:05:37.094Z,90.10
2017-07-10T20:08:04.630Z,90.80
2017-07-10T20:10:32.190Z,91.50
2017-07-10T20:13:00.484Z,90.70
2017-07-10T20:15:27.995Z,90.70
2017-07-10T20:17:55.544Z,90.30
2017-07-10T20:20:23.106Z,89.80
2017-07-10T20:22:50.615Z,89.60
2017-07-10T20:25:18.190Z,89.10
2017-07-10T20:27:45.721Z,90.10
2017-07-10T20:30:13.247Z,90.10
2017-07-10T20:32:40.820Z,89.40
2017-07-10T20:35:08.332Z,90.40
2017-07-10T20:37:35.840Z,90.40
2017-07-10T20:40:04.158Z,90.20
2017-07-10T20:42:31.675Z,90.20
2017-07-10T20:44:59.970Z,90.20
2017-07-10T20:47:27.573Z,90.20
2017-07-10T20:49:55.084Z,90.10
2017-07-10T20:52:22.671Z,90.40
2017-07-10T20:54:50.199Z,90.50
2017-07-10T20:57:17.729Z,90.70
2017-07-10T20:59:45.297Z,90.80
2017-07-10T21:02:14.469Z,90.40
2017-07-10T21:04:41.984Z,90.40
2017-07-10T21:07:09.535Z,90.60
2017-07-10T21:09:37.049Z,90.90
2017-07-10T21:12:04.620Z,90.80
2017-07-10T21:14:32.191Z,90.90
2017-07-10T21:16:59.717Z,90.90
2017-07-10T21:19:27.261Z,90.80
2017-07-10T21:21:54.781Z,90.40
2017-07-10T21:24:22.341Z,90.60
2017-07-10T21:26:49.861Z,90.40
2017-07-10T21:29:17.373Z,90.70
2017-07-10T21:31:44.920Z,90.60
2017-07-10T21:34:12.447Z,91.10
2017-07-10T21:36:40.728Z,91.10
2017-07-10T21:39:09.041Z,90.90
2017-07-10T21:41:36.565Z,90.90
2017-07-10T21:44:04.085Z,90.90
2017-07-10T21:46:31.650Z,90.30
2017-07-10T21:48:59.180Z,90.20
2017-07-10T21:51:26.692Z,89.70
2017-07-10T21:53:55.025Z,90.10
2017-07-10T21:56:22.554Z,90.00
2017-07-10T21:58:50.068Z,90.20
2017-07-10T22:01:18.398Z,90.30
2017-07-10T22:03:45.929Z,90.20
2017-07-10T22:06:13.454Z,90.50
2017-07-10T22:08:41.784Z,90.90
2017-07-10T22:11:09.310Z,90.90
2017-07-10T22:13:36.872Z,91.00
2017-07-10T22:16:04.401Z,90.80
2017-07-10T22:18:31.913Z,90.70
2017-07-10T22:20:59.466Z,91.00
2017-07-10T22:23:26.993Z,91.20
2017-07-10T22:25:55.303Z,91.40
2017-07-10T22:28:22.835Z,91.40
2017-07-10T22:30:50.357Z,91.20
2017-07-10T22:33:17.913Z,90.80
2017-07-10T22:35:45.437Z,90.10
2017-07-10T22:38:12.997Z,88.90
2017-07-10T22:40:40.529Z,88.20
2017-07-10T22:43:08.133Z,87.50
2017-07-10T22:45:35.640Z,86.50
2017-07-10T22:48:03.160Z,85.70
2017-07-10T22:50:30.716Z,86.40
2017-07-10T22:52:58.336Z,86.70
2017-07-10T22:55:25.861Z,86.90
2017-07-10T22:57:53.412Z,86.80
2017-07-10T23:00:21.686Z,87.00
2017-07-10T23:02:50.021Z,87.70
2017-07-10T23:05:17.544Z,87.50
2017-07-10T23:07:45.075Z,86.90
2017-07-10T23:10:13.409Z,85.70
2017-07-10T23:12:40.919Z,85.70
2017-07-10T23:15:08.469Z,85.70
2017-07-10T23:17:36.791Z,85.50
2017-07-10T23:20:04.314Z,85.40
2017-07-10T23:22:31.823Z,85.60
2017-07-10T23:24:59.403Z,85.30
2017-07-10T23:27:26.938Z,84.90
2017-07-10T23:29:54.456Z,85.30
2017-07-10T23:32:22.012Z,85.20
2017-07-10T23:34:49.588Z,85.00
2017-07-10T23:37:17.104Z,85.20
2017-07-10T23:39:45.396Z,86.00
2017-07-10T23:42:12.950Z,86.00
2017-07-10T23:44:40.473Z,85.60
2017-07-10T23:47:08.043Z,86.00
2017-07-10T23:49:36.327Z,86.00
2017-07-10T23:52:03.848Z,86.00
2017-07-10T23:54:31.397Z,86.10
2017-07-10T23:56:58.911Z,86.20
2017-07-10T23:59:26.468Z,87.20
